sensor_id;sensor_type;location;lat;lon;timestamp;temperature;humidity
68924;DHT22;55961;52.156;20.942;2023-05-19T00:01:41;12.80;73.30
68924;DHT22;55961;52.156;20.942;2023-05-19T00:04:09;12.80;73.10
68924;DHT22;55961;52.156;20.942;2023-05-19T00:06:37;12.80;73.00
68924;DHT22;55961;52.156;20.942;2023-05-19T00:09:04;12.80;73.20
68924;DHT22;55961;52.156;20.942;2023-05-19T00:11:36;12.80;73.10
68924;DHT22;55961;52.156;20.942;2023-05-19T00:14:04;12.80;73.00
68924;DHT22;55961;52.156;20.942;2023-05-19T00:16:31;12.70;73.10
68924;DHT22;55961;52.156;20.942;2023-05-19T00:18:58;12.70;73.20
68924;DHT22;55961;52.156;20.942;2023-05-19T00:21:25;12.70;73.60
68924;DHT22;55961;52.156;20.942;2023-05-19T00:23:51;12.70;73.70
68924;DHT22;55961;52.156;20.942;2023-05-19T00:26:17;12.70;73.40
68924;DHT22;55961;52.156;20.942;2023-05-19T00:28:43;12.60;72.50
68924;DHT22;55961;52.156;20.942;2023-05-19T00:31:09;12.60;72.10
68924;DHT22;55961;52.156;20.942;2023-05-19T00:33:35;12.60;71.70
68924;DHT22;55961;52.156;20.942;2023-05-19T00:36:02;12.50;71.80
68924;DHT22;55961;52.156;20.942;2023-05-19T00:38:31;12.50;71.80
68924;DHT22;55961;52.156;20.942;2023-05-19T00:40:58;12.50;72.30
68924;DHT22;55961;52.156;20.942;2023-05-19T00:43:25;12.40;72.10
68924;DHT22;55961;52.156;20.942;2023-05-19T00:45:51;12.40;72.00
68924;DHT22;55961;52.156;20.942;2023-05-19T00:48:17;12.40;72.40
68924;DHT22;55961;52.156;20.942;2023-05-19T00:50:44;12.40;72.30
68924;DHT22;55961;52.156;20.942;2023-05-19T00:53:11;12.40;72.40
68924;DHT22;55961;52.156;20.942;2023-05-19T00:55:37;12.30;72.20
68924;DHT22;55961;52.156;20.942;2023-05-19T00:58:06;12.30;72.30
68924;DHT22;55961;52.156;20.942;2023-05-19T01:00:33;12.30;72.20
68924;DHT22;55961;52.156;20.942;2023-05-19T01:03:02;12.20;72.30
68924;DHT22;55961;52.156;20.942;2023-05-19T01:05:38;12.20;72.40
68924;DHT22;55961;52.156;20.942;2023-05-19T01:08:06;12.20;72.60
68924;DHT22;55961;52.156;20.942;2023-05-19T01:10:33;12.20;72.40
68924;DHT22;55961;52.156;20.942;2023-05-19T01:12:59;12.10;72.60
68924;DHT22;55961;52.156;20.942;2023-05-19T01:15:26;12.10;72.60
68924;DHT22;55961;52.156;20.942;2023-05-19T01:18:07;12.10;72.90
68924;DHT22;55961;52.156;20.942;2023-05-19T01:20:46;12.10;73.30
68924;DHT22;55961;52.156;20.942;2023-05-19T01:31:26;12.00;73.80
68924;DHT22;55961;52.156;20.942;2023-05-19T01:33:53;12.00;74.00
68924;DHT22;55961;52.156;20.942;2023-05-19T01:36:21;12.00;74.00
68924;DHT22;55961;52.156;20.942;2023-05-19T01:38:53;12.00;74.40
68924;DHT22;55961;52.156;20.942;2023-05-19T01:41:21;12.00;74.50
68924;DHT22;55961;52.156;20.942;2023-05-19T01:43:48;12.00;74.30
68924;DHT22;55961;52.156;20.942;2023-05-19T01:46:15;12.00;74.40
68924;DHT22;55961;52.156;20.942;2023-05-19T01:48:43;11.90;74.30
68924;DHT22;55961;52.156;20.942;2023-05-19T01:51:10;11.90;74.20
68924;DHT22;55961;52.156;20.942;2023-05-19T01:53:36;11.90;74.10
68924;DHT22;55961;52.156;20.942;2023-05-19T01:56:02;11.90;74.20
68924;DHT22;55961;52.156;20.942;2023-05-19T01:58:44;11.90;74.40
68924;DHT22;55961;52.156;20.942;2023-05-19T02:04:43;11.90;74.70
68924;DHT22;55961;52.156;20.942;2023-05-19T02:10:04;11.80;75.10
68924;DHT22;55961;52.156;20.942;2023-05-19T02:12:35;11.80;75.30
68924;DHT22;55961;52.156;20.942;2023-05-19T02:17:40;11.80;75.60
68924;DHT22;55961;52.156;20.942;2023-05-19T02:20:07;11.80;75.70
68924;DHT22;55961;52.156;20.942;2023-05-19T02:22:36;11.80;75.60
68924;DHT22;55961;52.156;20.942;2023-05-19T02:25:02;11.80;75.60
68924;DHT22;55961;52.156;20.942;2023-05-19T02:27:28;11.80;75.90
68924;DHT22;55961;52.156;20.942;2023-05-19T02:29:54;11.80;75.90
68924;DHT22;55961;52.156;20.942;2023-05-19T02:32:21;11.80;76.10
68924;DHT22;55961;52.156;20.942;2023-05-19T02:34:47;11.90;76.50
68924;DHT22;55961;52.156;20.942;2023-05-19T02:37:14;11.90;76.60
68924;DHT22;55961;52.156;20.942;2023-05-19T02:39:41;11.90;76.60
68924;DHT22;55961;52.156;20.942;2023-05-19T02:42:07;11.90;76.70
68924;DHT22;55961;52.156;20.942;2023-05-19T02:44:34;11.90;76.50
68924;DHT22;55961;52.156;20.942;2023-05-19T02:47:00;11.90;76.70
68924;DHT22;55961;52.156;20.942;2023-05-19T02:49:26;11.90;76.50
68924;DHT22;55961;52.156;20.942;2023-05-19T02:51:55;11.90;76.60
68924;DHT22;55961;52.156;20.942;2023-05-19T02:54:22;11.90;76.80
68924;DHT22;55961;52.156;20.942;2023-05-19T02:56:48;11.90;76.90
68924;DHT22;55961;52.156;20.942;2023-05-19T02:59:14;11.90;77.00
68924;DHT22;55961;52.156;20.942;2023-05-19T03:01:40;11.90;77.00
68924;DHT22;55961;52.156;20.942;2023-05-19T03:04:06;11.90;77.30
68924;DHT22;55961;52.156;20.942;2023-05-19T03:06:32;11.90;77.30
68924;DHT22;55961;52.156;20.942;2023-05-19T03:08:58;11.90;77.00
68924;DHT22;55961;52.156;20.942;2023-05-19T03:11:24;11.90;77.00
68924;DHT22;55961;52.156;20.942;2023-05-19T03:13:50;11.90;77.20
68924;DHT22;55961;52.156;20.942;2023-05-19T03:16:16;11.90;77.10
68924;DHT22;55961;52.156;20.942;2023-05-19T03:18:42;11.90;77.30
68924;DHT22;55961;52.156;20.942;2023-05-19T03:21:08;11.90;77.40
68924;DHT22;55961;52.156;20.942;2023-05-19T03:23:34;11.90;77.60
68924;DHT22;55961;52.156;20.942;2023-05-19T03:26:00;11.90;77.70
68924;DHT22;55961;52.156;20.942;2023-05-19T03:28:26;11.90;77.70
68924;DHT22;55961;52.156;20.942;2023-05-19T03:30:52;11.90;77.80
68924;DHT22;55961;52.156;20.942;2023-05-19T03:33:18;11.90;78.00
68924;DHT22;55961;52.156;20.942;2023-05-19T03:35:44;11.90;78.20
68924;DHT22;55961;52.156;20.942;2023-05-19T03:38:10;11.90;78.20
68924;DHT22;55961;52.156;20.942;2023-05-19T03:40:36;11.90;78.10
68924;DHT22;55961;52.156;20.942;2023-05-19T03:43:02;11.90;78.10
68924;DHT22;55961;52.156;20.942;2023-05-19T03:45:28;11.90;78.10
68924;DHT22;55961;52.156;20.942;2023-05-19T03:47:55;11.90;77.90
68924;DHT22;55961;52.156;20.942;2023-05-19T03:50:21;11.90;78.00
68924;DHT22;55961;52.156;20.942;2023-05-19T03:52:47;11.90;78.20
68924;DHT22;55961;52.156;20.942;2023-05-19T03:55:13;11.90;78.20
68924;DHT22;55961;52.156;20.942;2023-05-19T03:57:40;11.90;78.00
68924;DHT22;55961;52.156;20.942;2023-05-19T04:00:06;11.90;78.00
68924;DHT22;55961;52.156;20.942;2023-05-19T04:02:32;11.90;78.00
68924;DHT22;55961;52.156;20.942;2023-05-19T04:04:58;11.90;78.20
68924;DHT22;55961;52.156;20.942;2023-05-19T04:07:24;11.90;78.30
68924;DHT22;55961;52.156;20.942;2023-05-19T04:09:50;11.90;78.50
68924;DHT22;55961;52.156;20.942;2023-05-19T04:12:16;11.90;78.80
68924;DHT22;55961;52.156;20.942;2023-05-19T04:14:42;11.80;78.70
68924;DHT22;55961;52.156;20.942;2023-05-19T04:17:08;11.80;78.70
68924;DHT22;55961;52.156;20.942;2023-05-19T04:19:34;11.80;78.90
68924;DHT22;55961;52.156;20.942;2023-05-19T04:22:00;11.80;79.10
68924;DHT22;55961;52.156;20.942;2023-05-19T04:24:26;11.80;79.40
68924;DHT22;55961;52.156;20.942;2023-05-19T04:26:52;11.80;79.20
68924;DHT22;55961;52.156;20.942;2023-05-19T04:29:18;11.80;79.70
68924;DHT22;55961;52.156;20.942;2023-05-19T04:31:44;11.80;79.90
68924;DHT22;55961;52.156;20.942;2023-05-19T04:34:10;11.80;80.00
68924;DHT22;55961;52.156;20.942;2023-05-19T04:36:36;11.80;80.20
68924;DHT22;55961;52.156;20.942;2023-05-19T04:39:02;11.80;80.20
68924;DHT22;55961;52.156;20.942;2023-05-19T04:41:34;11.80;80.30
68924;DHT22;55961;52.156;20.942;2023-05-19T04:43:59;11.80;80.30
68924;DHT22;55961;52.156;20.942;2023-05-19T04:46:26;11.80;80.30
68924;DHT22;55961;52.156;20.942;2023-05-19T04:48:54;11.80;80.30
68924;DHT22;55961;52.156;20.942;2023-05-19T04:51:22;11.80;80.30
68924;DHT22;55961;52.156;20.942;2023-05-19T04:53:54;11.80;80.50
68924;DHT22;55961;52.156;20.942;2023-05-19T04:56:20;11.80;80.40
68924;DHT22;55961;52.156;20.942;2023-05-19T04:58:47;11.80;80.40
68924;DHT22;55961;52.156;20.942;2023-05-19T05:01:13;11.70;80.40
68924;DHT22;55961;52.156;20.942;2023-05-19T05:03:40;11.80;80.30
68924;DHT22;55961;52.156;20.942;2023-05-19T05:06:07;11.80;80.40
68924;DHT22;55961;52.156;20.942;2023-05-19T05:08:33;11.70;80.60
68924;DHT22;55961;52.156;20.942;2023-05-19T05:11:00;11.80;80.80
68924;DHT22;55961;52.156;20.942;2023-05-19T05:13:26;11.70;80.70
68924;DHT22;55961;52.156;20.942;2023-05-19T05:15:52;11.80;80.90
68924;DHT22;55961;52.156;20.942;2023-05-19T05:18:18;11.80;80.90
68924;DHT22;55961;52.156;20.942;2023-05-19T05:20:45;11.80;81.20
68924;DHT22;55961;52.156;20.942;2023-05-19T05:23:12;11.80;81.00
68924;DHT22;55961;52.156;20.942;2023-05-19T05:25:40;11.70;81.40
68924;DHT22;55961;52.156;20.942;2023-05-19T05:28:06;11.70;81.60
68924;DHT22;55961;52.156;20.942;2023-05-19T05:30:33;11.80;81.70
68924;DHT22;55961;52.156;20.942;2023-05-19T05:32:59;11.80;81.70
68924;DHT22;55961;52.156;20.942;2023-05-19T05:35:27;11.80;81.90
68924;DHT22;55961;52.156;20.942;2023-05-19T05:37:53;11.80;82.10
68924;DHT22;55961;52.156;20.942;2023-05-19T05:40:19;11.80;82.10
68924;DHT22;55961;52.156;20.942;2023-05-19T05:42:45;11.80;82.10
68924;DHT22;55961;52.156;20.942;2023-05-19T05:45:12;11.90;82.20
68924;DHT22;55961;52.156;20.942;2023-05-19T05:47:38;11.90;82.20
68924;DHT22;55961;52.156;20.942;2023-05-19T05:50:08;11.90;82.30
68924;DHT22;55961;52.156;20.942;2023-05-19T05:52:35;11.90;82.30
68924;DHT22;55961;52.156;20.942;2023-05-19T05:55:05;11.90;82.70
68924;DHT22;55961;52.156;20.942;2023-05-19T05:57:31;12.00;82.60
68924;DHT22;55961;52.156;20.942;2023-05-19T06:00:00;12.00;82.80
68924;DHT22;55961;52.156;20.942;2023-05-19T06:02:25;12.00;82.60
68924;DHT22;55961;52.156;20.942;2023-05-19T06:04:53;12.00;82.40
68924;DHT22;55961;52.156;20.942;2023-05-19T06:07:19;12.10;82.20
68924;DHT22;55961;52.156;20.942;2023-05-19T06:09:46;12.10;82.30
68924;DHT22;55961;52.156;20.942;2023-05-19T06:12:11;12.10;82.30
68924;DHT22;55961;52.156;20.942;2023-05-19T06:14:37;12.10;82.20
68924;DHT22;55961;52.156;20.942;2023-05-19T06:17:03;12.10;82.10
68924;DHT22;55961;52.156;20.942;2023-05-19T06:19:31;12.10;82.30
68924;DHT22;55961;52.156;20.942;2023-05-19T06:21:56;12.10;82.50
68924;DHT22;55961;52.156;20.942;2023-05-19T06:24:22;12.20;82.80
68924;DHT22;55961;52.156;20.942;2023-05-19T06:26:48;12.20;82.60
68924;DHT22;55961;52.156;20.942;2023-05-19T06:29:14;12.20;82.20
68924;DHT22;55961;52.156;20.942;2023-05-19T06:31:41;12.20;82.00
68924;DHT22;55961;52.156;20.942;2023-05-19T06:34:07;12.20;81.60
68924;DHT22;55961;52.156;20.942;2023-05-19T06:36:36;12.20;81.40
68924;DHT22;55961;52.156;20.942;2023-05-19T06:39:02;12.20;81.30
68924;DHT22;55961;52.156;20.942;2023-05-19T06:41:28;12.20;81.50
68924;DHT22;55961;52.156;20.942;2023-05-19T06:43:54;12.20;82.10
68924;DHT22;55961;52.156;20.942;2023-05-19T06:46:21;12.30;82.20
68924;DHT22;55961;52.156;20.942;2023-05-19T06:48:47;12.30;82.30
68924;DHT22;55961;52.156;20.942;2023-05-19T06:51:12;12.30;82.10
68924;DHT22;55961;52.156;20.942;2023-05-19T06:53:40;12.30;82.20
68924;DHT22;55961;52.156;20.942;2023-05-19T06:56:06;12.30;82.00
68924;DHT22;55961;52.156;20.942;2023-05-19T06:58:32;12.30;82.20
68924;DHT22;55961;52.156;20.942;2023-05-19T07:00:58;12.40;82.40
68924;DHT22;55961;52.156;20.942;2023-05-19T07:03:24;12.40;82.20
68924;DHT22;55961;52.156;20.942;2023-05-19T07:05:50;12.40;82.20
68924;DHT22;55961;52.156;20.942;2023-05-19T07:08:16;12.50;81.60
68924;DHT22;55961;52.156;20.942;2023-05-19T07:10:42;12.40;81.50
68924;DHT22;55961;52.156;20.942;2023-05-19T07:13:08;12.50;81.40
68924;DHT22;55961;52.156;20.942;2023-05-19T07:15:34;12.40;81.30
68924;DHT22;55961;52.156;20.942;2023-05-19T07:18:00;12.50;81.60
68924;DHT22;55961;52.156;20.942;2023-05-19T07:20:26;12.50;81.70
68924;DHT22;55961;52.156;20.942;2023-05-19T07:22:52;12.50;81.90
68924;DHT22;55961;52.156;20.942;2023-05-19T07:25:17;12.50;82.40
68924;DHT22;55961;52.156;20.942;2023-05-19T07:27:43;12.50;82.30
68924;DHT22;55961;52.156;20.942;2023-05-19T07:30:10;12.50;82.10
68924;DHT22;55961;52.156;20.942;2023-05-19T07:32:37;12.60;82.20
68924;DHT22;55961;52.156;20.942;2023-05-19T07:35:04;12.60;82.00
68924;DHT22;55961;52.156;20.942;2023-05-19T07:37:30;12.60;82.30
68924;DHT22;55961;52.156;20.942;2023-05-19T07:39:56;12.60;82.10
68924;DHT22;55961;52.156;20.942;2023-05-19T07:42:22;12.60;81.90
68924;DHT22;55961;52.156;20.942;2023-05-19T07:44:48;12.60;82.10
68924;DHT22;55961;52.156;20.942;2023-05-19T07:47:14;12.70;81.90
68924;DHT22;55961;52.156;20.942;2023-05-19T07:49:40;12.70;81.50
68924;DHT22;55961;52.156;20.942;2023-05-19T07:52:06;12.70;81.50
68924;DHT22;55961;52.156;20.942;2023-05-19T07:54:32;12.70;81.90
68924;DHT22;55961;52.156;20.942;2023-05-19T07:56:58;12.70;81.60
68924;DHT22;55961;52.156;20.942;2023-05-19T07:59:23;12.70;81.10
68924;DHT22;55961;52.156;20.942;2023-05-19T08:01:49;12.80;81.00
68924;DHT22;55961;52.156;20.942;2023-05-19T08:04:15;12.80;80.90
68924;DHT22;55961;52.156;20.942;2023-05-19T08:06:41;12.70;80.60
68924;DHT22;55961;52.156;20.942;2023-05-19T08:09:09;12.80;80.80
68924;DHT22;55961;52.156;20.942;2023-05-19T08:11:35;12.80;81.30
68924;DHT22;55961;52.156;20.942;2023-05-19T08:14:01;12.80;81.20
68924;DHT22;55961;52.156;20.942;2023-05-19T08:16:28;12.80;81.00
68924;DHT22;55961;52.156;20.942;2023-05-19T08:18:53;12.80;81.10
68924;DHT22;55961;52.156;20.942;2023-05-19T08:21:20;12.80;80.90
68924;DHT22;55961;52.156;20.942;2023-05-19T08:23:46;12.80;80.70
68924;DHT22;55961;52.156;20.942;2023-05-19T08:26:12;12.80;80.90
68924;DHT22;55961;52.156;20.942;2023-05-19T08:28:38;12.90;80.80
68924;DHT22;55961;52.156;20.942;2023-05-19T08:31:04;12.80;80.40
68924;DHT22;55961;52.156;20.942;2023-05-19T08:33:30;12.90;80.20
68924;DHT22;55961;52.156;20.942;2023-05-19T08:35:56;12.90;80.10
68924;DHT22;55961;52.156;20.942;2023-05-19T08:38:23;12.90;80.20
68924;DHT22;55961;52.156;20.942;2023-05-19T08:40:50;12.90;80.40
68924;DHT22;55961;52.156;20.942;2023-05-19T08:43:16;12.90;80.50
68924;DHT22;55961;52.156;20.942;2023-05-19T08:45:43;12.90;80.30
68924;DHT22;55961;52.156;20.942;2023-05-19T08:48:13;12.90;80.40
68924;DHT22;55961;52.156;20.942;2023-05-19T08:50:52;13.00;80.10
68924;DHT22;55961;52.156;20.942;2023-05-19T08:53:22;13.00;80.00
68924;DHT22;55961;52.156;20.942;2023-05-19T08:56:00;13.00;80.30
68924;DHT22;55961;52.156;20.942;2023-05-19T08:58:26;13.00;80.10
68924;DHT22;55961;52.156;20.942;2023-05-19T09:00:54;13.10;79.60
68924;DHT22;55961;52.156;20.942;2023-05-19T09:03:21;13.10;79.10
68924;DHT22;55961;52.156;20.942;2023-05-19T09:05:48;13.10;79.10
68924;DHT22;55961;52.156;20.942;2023-05-19T09:08:14;13.20;78.40
68924;DHT22;55961;52.156;20.942;2023-05-19T09:10:40;13.20;78.70
68924;DHT22;55961;52.156;20.942;2023-05-19T09:13:06;13.20;78.90
68924;DHT22;55961;52.156;20.942;2023-05-19T09:15:33;13.30;78.70
68924;DHT22;55961;52.156;20.942;2023-05-19T09:18:10;13.30;78.60
68924;DHT22;55961;52.156;20.942;2023-05-19T09:20:41;13.30;78.30
68924;DHT22;55961;52.156;20.942;2023-05-19T09:23:12;13.40;78.30
68924;DHT22;55961;52.156;20.942;2023-05-19T09:25:49;13.40;78.60
68924;DHT22;55961;52.156;20.942;2023-05-19T09:28:29;13.50;79.10
68924;DHT22;55961;52.156;20.942;2023-05-19T09:31:00;13.50;79.20
68924;DHT22;55961;52.156;20.942;2023-05-19T09:33:27;13.60;78.70
68924;DHT22;55961;52.156;20.942;2023-05-19T09:35:54;13.60;77.90
68924;DHT22;55961;52.156;20.942;2023-05-19T09:38:26;13.70;77.80
68924;DHT22;55961;52.156;20.942;2023-05-19T09:40:55;13.70;77.60
68924;DHT22;55961;52.156;20.942;2023-05-19T09:43:28;13.80;77.40
68924;DHT22;55961;52.156;20.942;2023-05-19T09:45:58;13.80;77.00
68924;DHT22;55961;52.156;20.942;2023-05-19T09:48:25;13.80;76.20
68924;DHT22;55961;52.156;20.942;2023-05-19T09:50:53;13.80;75.80
68924;DHT22;55961;52.156;20.942;2023-05-19T09:53:20;13.80;76.30
68924;DHT22;55961;52.156;20.942;2023-05-19T09:55:47;13.80;76.60
68924;DHT22;55961;52.156;20.942;2023-05-19T09:58:17;13.90;76.40
68924;DHT22;55961;52.156;20.942;2023-05-19T10:00:45;13.90;76.10
68924;DHT22;55961;52.156;20.942;2023-05-19T10:03:12;13.90;75.70
68924;DHT22;55961;52.156;20.942;2023-05-19T10:05:39;13.90;75.80
68924;DHT22;55961;52.156;20.942;2023-05-19T10:08:06;14.00;76.00
68924;DHT22;55961;52.156;20.942;2023-05-19T10:10:36;14.00;75.80
68924;DHT22;55961;52.156;20.942;2023-05-19T10:13:03;14.10;75.80
68924;DHT22;55961;52.156;20.942;2023-05-19T10:15:29;14.10;75.20
68924;DHT22;55961;52.156;20.942;2023-05-19T10:17:55;14.10;75.40
68924;DHT22;55961;52.156;20.942;2023-05-19T10:20:21;14.20;75.70
68924;DHT22;55961;52.156;20.942;2023-05-19T10:22:47;14.20;74.50
68924;DHT22;55961;52.156;20.942;2023-05-19T10:25:14;14.20;74.40
68924;DHT22;55961;52.156;20.942;2023-05-19T10:27:44;14.30;75.00
68924;DHT22;55961;52.156;20.942;2023-05-19T10:30:17;14.40;75.00
68924;DHT22;55961;52.156;20.942;2023-05-19T10:32:46;14.40;75.20
68924;DHT22;55961;52.156;20.942;2023-05-19T10:35:39;14.50;74.60
68924;DHT22;55961;52.156;20.942;2023-05-19T10:41:01;14.70;74.50
68924;DHT22;55961;52.156;20.942;2023-05-19T10:43:34;14.80;73.60
68924;DHT22;55961;52.156;20.942;2023-05-19T10:46:03;14.80;72.90
68924;DHT22;55961;52.156;20.942;2023-05-19T10:48:32;14.90;72.00
68924;DHT22;55961;52.156;20.942;2023-05-19T10:51:00;14.90;72.60
68924;DHT22;55961;52.156;20.942;2023-05-19T10:53:31;15.00;72.40
68924;DHT22;55961;52.156;20.942;2023-05-19T10:55:57;15.00;72.50
68924;DHT22;55961;52.156;20.942;2023-05-19T11:01:17;15.10;72.00
68924;DHT22;55961;52.156;20.942;2023-05-19T11:03:48;15.20;71.60
68924;DHT22;55961;52.156;20.942;2023-05-19T11:08:43;15.30;71.90
68924;DHT22;55961;52.156;20.942;2023-05-19T11:11:16;15.30;71.60
68924;DHT22;55961;52.156;20.942;2023-05-19T11:13:50;15.40;71.60
68924;DHT22;55961;52.156;20.942;2023-05-19T11:16:35;15.40;70.80
68924;DHT22;55961;52.156;20.942;2023-05-19T11:19:00;15.50;71.30
68924;DHT22;55961;52.156;20.942;2023-05-19T11:21:49;15.50;70.80
68924;DHT22;55961;52.156;20.942;2023-05-19T11:24:47;15.50;71.00
68924;DHT22;55961;52.156;20.942;2023-05-19T11:27:30;15.60;71.00
68924;DHT22;55961;52.156;20.942;2023-05-19T11:29:58;15.60;70.50
68924;DHT22;55961;52.156;20.942;2023-05-19T11:32:29;15.70;70.70
68924;DHT22;55961;52.156;20.942;2023-05-19T11:34:56;15.70;70.00
68924;DHT22;55961;52.156;20.942;2023-05-19T11:37:22;15.80;70.80
68924;DHT22;55961;52.156;20.942;2023-05-19T11:39:48;15.90;71.00
68924;DHT22;55961;52.156;20.942;2023-05-19T11:42:15;15.90;70.20
68924;DHT22;55961;52.156;20.942;2023-05-19T11:44:42;16.00;70.30
68924;DHT22;55961;52.156;20.942;2023-05-19T11:47:12;16.10;70.20
68924;DHT22;55961;52.156;20.942;2023-05-19T11:49:38;16.10;69.60
68924;DHT22;55961;52.156;20.942;2023-05-19T11:52:07;16.10;69.30
68924;DHT22;55961;52.156;20.942;2023-05-19T11:54:33;16.20;68.60
68924;DHT22;55961;52.156;20.942;2023-05-19T11:57:02;16.20;68.90
68924;DHT22;55961;52.156;20.942;2023-05-19T11:59:32;16.30;69.20
68924;DHT22;55961;52.156;20.942;2023-05-19T12:02:21;16.40;69.20
68924;DHT22;55961;52.156;20.942;2023-05-19T12:04:47;16.40;69.00
68924;DHT22;55961;52.156;20.942;2023-05-19T12:07:22;16.40;68.50
68924;DHT22;55961;52.156;20.942;2023-05-19T12:09:49;16.50;68.20
68924;DHT22;55961;52.156;20.942;2023-05-19T12:12:19;16.50;67.90
68924;DHT22;55961;52.156;20.942;2023-05-19T12:14:46;16.50;67.90
68924;DHT22;55961;52.156;20.942;2023-05-19T12:17:17;16.50;67.90
68924;DHT22;55961;52.156;20.942;2023-05-19T12:19:48;16.50;67.80
68924;DHT22;55961;52.156;20.942;2023-05-19T12:22:15;16.50;67.40
68924;DHT22;55961;52.156;20.942;2023-05-19T12:24:42;16.60;66.90
68924;DHT22;55961;52.156;20.942;2023-05-19T12:27:18;16.60;67.50
68924;DHT22;55961;52.156;20.942;2023-05-19T12:29:51;16.60;67.10
68924;DHT22;55961;52.156;20.942;2023-05-19T12:32:18;16.60;67.80
68924;DHT22;55961;52.156;20.942;2023-05-19T12:34:47;16.60;67.90
68924;DHT22;55961;52.156;20.942;2023-05-19T12:37:13;16.60;67.80
68924;DHT22;55961;52.156;20.942;2023-05-19T12:39:41;16.70;68.10
68924;DHT22;55961;52.156;20.942;2023-05-19T12:42:08;16.70;67.60
68924;DHT22;55961;52.156;20.942;2023-05-19T12:44:53;16.70;67.50
68924;DHT22;55961;52.156;20.942;2023-05-19T12:47:20;16.70;67.10
68924;DHT22;55961;52.156;20.942;2023-05-19T12:52:20;16.70;67.50
68924;DHT22;55961;52.156;20.942;2023-05-19T12:54:48;16.80;67.50
68924;DHT22;55961;52.156;20.942;2023-05-19T12:57:19;16.80;67.80
68924;DHT22;55961;52.156;20.942;2023-05-19T12:59:45;16.80;67.60
68924;DHT22;55961;52.156;20.942;2023-05-19T13:02:11;16.80;67.20
68924;DHT22;55961;52.156;20.942;2023-05-19T13:04:37;16.80;67.10
68924;DHT22;55961;52.156;20.942;2023-05-19T13:07:03;16.80;66.90
68924;DHT22;55961;52.156;20.942;2023-05-19T13:09:29;16.80;67.30
68924;DHT22;55961;52.156;20.942;2023-05-19T13:12:00;16.80;66.80
68924;DHT22;55961;52.156;20.942;2023-05-19T13:14:25;16.80;67.00
68924;DHT22;55961;52.156;20.942;2023-05-19T13:16:51;16.80;67.30
68924;DHT22;55961;52.156;20.942;2023-05-19T13:19:18;16.80;67.30
68924;DHT22;55961;52.156;20.942;2023-05-19T13:21:45;16.80;67.50
68924;DHT22;55961;52.156;20.942;2023-05-19T13:24:12;16.80;67.70
68924;DHT22;55961;52.156;20.942;2023-05-19T13:26:39;16.90;67.00
68924;DHT22;55961;52.156;20.942;2023-05-19T13:29:06;16.90;67.10
68924;DHT22;55961;52.156;20.942;2023-05-19T13:31:32;16.90;67.30
68924;DHT22;55961;52.156;20.942;2023-05-19T13:33:57;16.90;67.50
68924;DHT22;55961;52.156;20.942;2023-05-19T13:36:25;16.90;67.20
68924;DHT22;55961;52.156;20.942;2023-05-19T13:38:52;16.90;67.10
68924;DHT22;55961;52.156;20.942;2023-05-19T13:41:25;16.90;67.40
68924;DHT22;55961;52.156;20.942;2023-05-19T13:43:52;16.90;67.40
68924;DHT22;55961;52.156;20.942;2023-05-19T13:46:18;16.90;67.30
68924;DHT22;55961;52.156;20.942;2023-05-19T13:48:44;16.90;66.90
68924;DHT22;55961;52.156;20.942;2023-05-19T13:51:10;16.90;66.40
68924;DHT22;55961;52.156;20.942;2023-05-19T13:53:36;16.90;66.90
68924;DHT22;55961;52.156;20.942;2023-05-19T13:56:04;16.90;67.20
68924;DHT22;55961;52.156;20.942;2023-05-19T13:58:29;16.90;67.00
68924;DHT22;55961;52.156;20.942;2023-05-19T14:00:55;16.90;67.10
68924;DHT22;55961;52.156;20.942;2023-05-19T14:03:24;16.90;67.00
68924;DHT22;55961;52.156;20.942;2023-05-19T14:05:50;16.90;67.00
68924;DHT22;55961;52.156;20.942;2023-05-19T14:08:17;16.90;66.80
68924;DHT22;55961;52.156;20.942;2023-05-19T14:10:47;16.80;66.70
68924;DHT22;55961;52.156;20.942;2023-05-19T14:13:13;16.80;66.50
68924;DHT22;55961;52.156;20.942;2023-05-19T14:15:39;16.80;66.90
68924;DHT22;55961;52.156;20.942;2023-05-19T14:18:05;16.80;67.00
68924;DHT22;55961;52.156;20.942;2023-05-19T14:20:31;16.80;67.30
68924;DHT22;55961;52.156;20.942;2023-05-19T14:22:57;16.80;67.60
68924;DHT22;55961;52.156;20.942;2023-05-19T14:25:23;16.80;67.50
68924;DHT22;55961;52.156;20.942;2023-05-19T14:27:48;16.80;67.30
68924;DHT22;55961;52.156;20.942;2023-05-19T14:30:15;16.80;67.30
68924;DHT22;55961;52.156;20.942;2023-05-19T14:32:41;16.80;67.30
68924;DHT22;55961;52.156;20.942;2023-05-19T14:35:07;16.80;67.30
68924;DHT22;55961;52.156;20.942;2023-05-19T14:37:33;16.70;67.40
68924;DHT22;55961;52.156;20.942;2023-05-19T14:39:59;16.70;67.60
68924;DHT22;55961;52.156;20.942;2023-05-19T14:42:25;16.70;67.80
68924;DHT22;55961;52.156;20.942;2023-05-19T14:44:51;16.60;68.10
68924;DHT22;55961;52.156;20.942;2023-05-19T14:47:16;16.60;68.70
68924;DHT22;55961;52.156;20.942;2023-05-19T14:49:42;16.60;68.60
68924;DHT22;55961;52.156;20.942;2023-05-19T14:52:08;16.60;68.60
68924;DHT22;55961;52.156;20.942;2023-05-19T14:54:34;16.60;68.40
68924;DHT22;55961;52.156;20.942;2023-05-19T14:57:00;16.60;68.60
68924;DHT22;55961;52.156;20.942;2023-05-19T14:59:26;16.60;68.70
68924;DHT22;55961;52.156;20.942;2023-05-19T15:01:52;16.60;68.60
68924;DHT22;55961;52.156;20.942;2023-05-19T15:04:18;16.60;68.30
68924;DHT22;55961;52.156;20.942;2023-05-19T15:06:44;16.60;68.60
68924;DHT22;55961;52.156;20.942;2023-05-19T15:09:10;16.60;68.40
68924;DHT22;55961;52.156;20.942;2023-05-19T15:11:39;16.50;68.40
68924;DHT22;55961;52.156;20.942;2023-05-19T15:14:05;16.60;68.40
68924;DHT22;55961;52.156;20.942;2023-05-19T15:16:30;16.50;68.40
68924;DHT22;55961;52.156;20.942;2023-05-19T15:18:57;16.60;68.70
68924;DHT22;55961;52.156;20.942;2023-05-19T15:21:22;16.50;68.90
68924;DHT22;55961;52.156;20.942;2023-05-19T15:23:48;16.50;69.00
68924;DHT22;55961;52.156;20.942;2023-05-19T15:26:14;16.60;69.30
68924;DHT22;55961;52.156;20.942;2023-05-19T15:28:41;16.60;69.30
68924;DHT22;55961;52.156;20.942;2023-05-19T15:31:06;16.60;69.10
68924;DHT22;55961;52.156;20.942;2023-05-19T15:33:32;16.60;69.40
68924;DHT22;55961;52.156;20.942;2023-05-19T15:35:58;16.60;69.60
68924;DHT22;55961;52.156;20.942;2023-05-19T15:38:24;16.60;69.50
68924;DHT22;55961;52.156;20.942;2023-05-19T15:40:50;16.60;69.70
68924;DHT22;55961;52.156;20.942;2023-05-19T15:43:16;16.60;69.60
68924;DHT22;55961;52.156;20.942;2023-05-19T15:45:42;16.60;69.40